createdAt,value
2019-05-12T00:00:58.613Z,6.20
2019-05-12T00:03:39.643Z,6.20
2019-05-12T00:06:20.436Z,6.20
2019-05-12T00:09:01.310Z,6.10
2019-05-12T00:11:41.657Z,6.10
2019-05-12T00:14:22.545Z,6.00
2019-05-12T00:17:03.771Z,6.00
2019-05-12T00:19:44.402Z,5.90
2019-05-12T00:22:28.651Z,5.90
2019-05-12T00:25:09.456Z,5.80
2019-05-12T00:27:50.092Z,5.80
2019-05-12T00:30:33.495Z,5.70
2019-05-12T00:33:14.184Z,5.60
2019-05-12T00:35:55.380Z,5.60
2019-05-12T00:38:38.192Z,5.60
2019-05-12T00:41:18.684Z,5.60
2019-05-12T00:43:59.560Z,5.50
2019-05-12T00:46:40.250Z,5.50
2019-05-12T00:49:20.880Z,5.50
2019-05-12T00:52:01.659Z,5.50
2019-05-12T00:54:42.019Z,5.50
2019-05-12T00:57:22.601Z,5.50
2019-05-12T01:00:03.148Z,5.40
2019-05-12T01:02:43.699Z,5.30
2019-05-12T01:05:24.969Z,5.30
2019-05-12T01:08:08.482Z,5.20
2019-05-12T01:10:48.531Z,5.20
2019-05-12T01:13:29.495Z,5.20
2019-05-12T01:16:10.376Z,5.20
2019-05-12T01:18:51.076Z,5.10
2019-05-12T01:21:31.652Z,5.10
2019-05-12T01:24:12.192Z,5.00
2019-05-12T01:26:53.061Z,4.90
2019-05-12T01:29:33.676Z,4.80
2019-05-12T01:32:33.344Z,4.80
2019-05-12T01:35:14.766Z,4.80
2019-05-12T01:37:55.298Z,4.70
2019-05-12T01:40:38.516Z,4.70
2019-05-12T01:43:21.301Z,4.70
2019-05-12T01:46:02.003Z,4.70
2019-05-12T01:48:43.084Z,4.60
2019-05-12T01:51:23.767Z,4.60
2019-05-12T01:54:13.622Z,4.50
2019-05-12T01:56:48.377Z,4.50
2019-05-12T01:59:29.739Z,4.40
2019-05-12T02:02:10.856Z,4.40
2019-05-12T02:05:10.331Z,4.30
2019-05-12T02:07:53.446Z,4.30
2019-05-12T02:10:34.578Z,4.30
2019-05-12T02:13:15.385Z,4.20
2019-05-12T02:15:57.894Z,4.30
2019-05-12T02:18:38.941Z,4.30
2019-05-12T02:21:19.552Z,4.30
2019-05-12T02:24:00.254Z,4.40
2019-05-12T02:26:40.927Z,4.40
2019-05-12T02:29:21.725Z,4.30
2019-05-12T02:32:02.383Z,4.20
2019-05-12T02:34:45.711Z,4.20
2019-05-12T02:37:26.406Z,4.10
2019-05-12T02:40:07.063Z,4.10
2019-05-12T02:42:47.432Z,4.00
2019-05-12T02:45:28.119Z,4.00
2019-05-12T02:48:14.467Z,3.90
2019-05-12T02:50:54.565Z,3.80
2019-05-12T02:53:35.796Z,3.80
2019-05-12T02:56:16.482Z,3.80
2019-05-12T02:58:56.817Z,3.80
2019-05-12T03:01:38.226Z,3.80
2019-05-12T03:04:18.934Z,3.80
2019-05-12T03:07:02.341Z,3.80
2019-05-12T03:09:44.680Z,3.80
2019-05-12T03:12:25.614Z,3.70
2019-05-12T03:15:06.455Z,3.70
2019-05-12T03:17:46.934Z,3.70
2019-05-12T03:20:27.715Z,3.60
2019-05-12T03:23:08.407Z,3.60
2019-05-12T03:25:49.693Z,3.60
2019-05-12T03:28:30.927Z,3.50
2019-05-12T03:31:22.048Z,3.50
2019-05-12T03:34:00.095Z,3.50
2019-05-12T03:36:41.646Z,3.50
2019-05-12T03:39:20.706Z,3.50
2019-05-12T03:42:01.401Z,3.50
2019-05-12T03:44:44.539Z,3.40
2019-05-12T03:47:25.576Z,3.40
2019-05-12T03:50:06.410Z,3.40
2019-05-12T03:52:46.976Z,3.40
2019-05-12T03:55:35.897Z,3.40
2019-05-12T03:58:10.258Z,3.30
2019-05-12T04:00:51.183Z,3.30
2019-05-12T04:03:34.565Z,3.40
2019-05-12T04:06:15.623Z,3.30
2019-05-12T04:08:59.881Z,3.30
2019-05-12T04:11:39.524Z,3.30
2019-05-12T04:14:20.322Z,3.30
2019-05-12T04:17:04.481Z,3.30
2019-05-12T04:19:44.812Z,3.30
2019-05-12T04:22:25.689Z,3.40
2019-05-12T04:25:06.789Z,3.40
2019-05-12T04:27:47.378Z,3.50
2019-05-12T04:30:28.044Z,3.50
2019-05-12T04:33:08.807Z,3.60
2019-05-12T04:35:49.940Z,3.60
2019-05-12T04:38:31.066Z,3.60
2019-05-12T04:41:14.381Z,3.70
2019-05-12T04:43:55.144Z,3.80
2019-05-12T04:46:36.468Z,3.90
2019-05-12T04:49:17.431Z,4.00
2019-05-12T04:51:58.266Z,4.10
2019-05-12T04:54:39.042Z,4.20
2019-05-12T04:57:21.141Z,4.20
2019-05-12T05:00:05.108Z,4.30
2019-05-12T05:02:45.705Z,4.40
2019-05-12T05:05:26.778Z,4.40
2019-05-12T05:08:07.360Z,4.50
2019-05-12T05:10:48.222Z,4.70
2019-05-12T05:13:28.829Z,4.80
2019-05-12T05:16:09.507Z,4.80
2019-05-12T05:18:50.224Z,4.90
2019-05-12T05:21:31.192Z,5.10
2019-05-12T05:24:14.270Z,5.30
2019-05-12T05:26:55.056Z,5.40
2019-05-12T05:29:37.263Z,5.60
2019-05-12T05:32:18.132Z,5.70
2019-05-12T05:34:58.863Z,5.90
2019-05-12T05:37:41.519Z,6.00
2019-05-12T05:40:25.962Z,6.10
2019-05-12T05:43:12.632Z,6.40
2019-05-12T05:45:47.305Z,6.50
2019-05-12T05:48:27.815Z,6.60
2019-05-12T05:51:09.196Z,6.70
2019-05-12T05:53:51.954Z,6.80
2019-05-12T05:56:42.382Z,6.90
2019-05-12T05:59:15.944Z,7.10
2019-05-12T06:01:56.769Z,7.30
2019-05-12T06:04:39.124Z,7.40
2019-05-12T06:07:23.825Z,7.50
2019-05-12T06:10:04.039Z,7.70
2019-05-12T06:12:48.591Z,7.90
2019-05-12T06:15:29.734Z,8.20
2019-05-12T06:18:09.835Z,8.30
2019-05-12T06:20:50.689Z,8.40
2019-05-12T06:23:34.934Z,8.50
2019-05-12T06:26:14.274Z,8.40
2019-05-12T06:28:57.773Z,8.50
2019-05-12T06:31:43.969Z,8.70
2019-05-12T06:34:24.935Z,8.80
2019-05-12T06:37:11.767Z,8.80
2019-05-12T06:39:50.874Z,8.80
2019-05-12T06:42:31.126Z,8.70
2019-05-12T06:45:13.965Z,8.60
2019-05-12T06:47:56.160Z,8.50
2019-05-12T06:50:39.200Z,8.50
2019-05-12T06:53:26.503Z,8.40
2019-05-12T06:56:04.484Z,8.50
2019-05-12T06:58:45.520Z,8.50
2019-05-12T07:01:26.293Z,8.70
2019-05-12T07:04:10.098Z,8.70
2019-05-12T07:06:56.045Z,8.80
2019-05-12T07:09:35.219Z,8.80
2019-05-12T07:12:15.452Z,8.90
2019-05-12T07:14:58.579Z,9.00
2019-05-12T07:20:35.395Z,9.00
2019-05-12T07:23:19.615Z,9.00
2019-05-12T07:25:57.705Z,9.10
2019-05-12T07:28:40.366Z,9.10
2019-05-12T07:31:23.319Z,9.00
2019-05-12T07:34:07.556Z,9.00
2019-05-12T07:36:46.572Z,9.00
2019-05-12T07:39:27.552Z,8.90
2019-05-12T07:42:09.112Z,9.00
2019-05-12T07:44:49.568Z,9.00
2019-05-12T07:47:30.569Z,9.10
2019-05-12T07:50:16.149Z,9.10
2019-05-12T07:52:54.360Z,9.20
2019-05-12T07:55:39.661Z,9.20
2019-05-12T07:58:19.377Z,9.20
2019-05-12T08:01:02.746Z,9.30
2019-05-12T08:03:43.736Z,9.20
2019-05-12T08:06:25.093Z,9.30
2019-05-12T08:09:06.808Z,9.30
2019-05-12T08:11:47.699Z,9.30
2019-05-12T08:14:29.470Z,9.30
2019-05-12T08:17:14.199Z,9.40
2019-05-12T08:19:53.605Z,9.60
2019-05-12T08:22:34.725Z,9.60
2019-05-12T08:25:18.920Z,9.80
2019-05-12T08:28:11.129Z,9.90
2019-05-12T08:30:49.769Z,10.10
2019-05-12T08:33:23.960Z,10.20
2019-05-12T08:36:11.287Z,10.20
2019-05-12T08:38:47.381Z,10.40
2019-05-12T08:41:28.474Z,10.50
2019-05-12T08:44:09.124Z,10.60
2019-05-12T08:46:52.222Z,10.70
2019-05-12T08:49:49.475Z,10.70
2019-05-12T08:52:15.659Z,10.80
2019-05-12T08:54:56.910Z,10.90
2019-05-12T08:57:40.923Z,10.90
2019-05-12T09:00:20.381Z,10.90
2019-05-12T09:03:00.742Z,11.10
2019-05-12T09:05:41.440Z,11.20
2019-05-12T09:08:24.120Z,11.30
2019-05-12T09:11:04.821Z,11.50
2019-05-12T09:13:45.528Z,11.70
2019-05-12T09:16:26.158Z,11.80
2019-05-12T09:19:15.519Z,11.90
2019-05-12T09:21:54.123Z,12.00
2019-05-12T09:24:35.256Z,11.90
2019-05-12T09:27:16.413Z,11.90
2019-05-12T09:29:59.227Z,11.80
2019-05-12T09:32:48.640Z,11.80
2019-05-12T09:35:23.616Z,11.80
2019-05-12T09:40:20.663Z,11.60
2019-05-12T09:43:00.169Z,11.50
2019-05-12T09:45:49.764Z,11.30
2019-05-12T09:48:24.834Z,11.30
2019-05-12T09:51:07.983Z,11.20
2019-05-12T09:53:51.131Z,11.20
2019-05-12T09:56:34.054Z,11.30
2019-05-12T09:59:22.603Z,11.30
2019-05-12T10:01:57.357Z,11.20
2019-05-12T10:04:38.096Z,11.10
2019-05-12T10:07:18.964Z,11.10
2019-05-12T10:09:59.965Z,11.10
2019-05-12T10:12:46.369Z,11.10
2019-05-12T10:15:28.592Z,11.20
2019-05-12T10:18:11.174Z,11.30
2019-05-12T10:20:49.149Z,11.50
2019-05-12T10:23:30.373Z,11.70
2019-05-12T10:26:12.269Z,12.00
2019-05-12T10:28:58.118Z,12.30
2019-05-12T10:31:39.225Z,12.40
2019-05-12T10:34:23.567Z,12.30
2019-05-12T10:37:04.254Z,12.30
2019-05-12T10:39:44.560Z,12.30
2019-05-12T10:42:25.061Z,12.20
2019-05-12T10:45:05.844Z,12.30
2019-05-12T10:47:48.504Z,12.50
2019-05-12T10:50:28.857Z,12.90
2019-05-12T10:53:15.096Z,13.70
2019-05-12T10:55:54.068Z,14.40
2019-05-12T10:58:35.228Z,14.60
2019-05-12T11:01:16.388Z,14.60
2019-05-12T11:03:56.943Z,14.30
2019-05-12T11:06:39.719Z,14.10
2019-05-12T11:09:21.326Z,14.50
2019-05-12T11:12:03.363Z,14.50
2019-05-12T11:14:44.500Z,14.30
2019-05-12T11:17:26.657Z,14.30
2019-05-12T11:20:07.551Z,14.70
2019-05-12T11:22:47.979Z,14.70
2019-05-12T11:25:28.685Z,15.00
2019-05-12T11:28:09.335Z,15.10
2019-05-12T11:30:50.236Z,15.20
2019-05-12T11:33:31.424Z,15.30
2019-05-12T11:36:13.558Z,14.90
2019-05-12T11:38:55.101Z,14.50
2019-05-12T11:41:35.829Z,14.50
2019-05-12T11:44:16.419Z,14.80
2019-05-12T11:46:57.514Z,14.90
2019-05-12T11:49:38.768Z,14.90
2019-05-12T11:52:19.636Z,15.00
2019-05-12T11:55:00.518Z,14.90
2019-05-12T11:57:43.657Z,14.80
2019-05-12T12:00:25.775Z,14.60
2019-05-12T12:03:12.650Z,14.30
2019-05-12T12:05:49.176Z,14.10
2019-05-12T12:08:33.691Z,13.90
2019-05-12T12:11:18.609Z,14.10
2019-05-12T12:14:00.308Z,14.20
2019-05-12T12:16:43.253Z,14.30
2019-05-12T12:19:37.753Z,14.40
2019-05-12T12:22:20.411Z,14.30
2019-05-12T12:25:11.387Z,14.10
2019-05-12T12:27:55.804Z,13.90
2019-05-12T12:30:47.284Z,13.80
2019-05-12T12:33:38.715Z,13.80
2019-05-12T12:36:23.713Z,13.90
2019-05-12T12:39:13.231Z,14.00
2019-05-12T12:42:04.450Z,14.20
2019-05-12T12:44:53.586Z,14.50
2019-05-12T12:47:44.381Z,14.60
2019-05-12T12:50:34.236Z,14.80
2019-05-12T12:53:23.813Z,14.80
2019-05-12T12:56:16.134Z,14.90
2019-05-12T12:59:09.896Z,14.90
2019-05-12T13:01:51.511Z,15.10
2019-05-12T13:04:45.219Z,15.30
2019-05-12T13:07:24.002Z,15.50
2019-05-12T13:10:09.306Z,15.30
2019-05-12T13:12:50.433Z,14.90
2019-05-12T13:15:30.207Z,14.80
2019-05-12T13:18:17.433Z,14.70
2019-05-12T13:20:57.626Z,14.80
2019-05-12T13:23:40.918Z,14.80
2019-05-12T13:26:19.333Z,14.90
2019-05-12T13:29:00.261Z,15.00
2019-05-12T13:31:46.229Z,15.10
2019-05-12T13:34:28.787Z,15.00
2019-05-12T13:37:09.470Z,14.90
2019-05-12T13:39:58.663Z,14.70
2019-05-12T13:42:35.756Z,14.60
2019-05-12T13:45:16.341Z,14.70
2019-05-12T13:47:57.844Z,14.70
2019-05-12T13:50:38.264Z,14.90
2019-05-12T13:53:18.659Z,14.70
2019-05-12T13:55:59.485Z,14.40
2019-05-12T13:58:43.724Z,14.30
2019-05-12T14:01:24.677Z,14.30
2019-05-12T14:04:05.017Z,14.30
2019-05-12T14:06:45.633Z,14.50
2019-05-12T14:09:26.308Z,14.60
2019-05-12T14:12:06.819Z,14.60
2019-05-12T14:14:47.361Z,14.50
2019-05-12T14:17:38.743Z,14.40
2019-05-12T14:20:23.934Z,14.50
2019-05-12T14:23:04.372Z,14.50
2019-05-12T14:25:45.172Z,14.80
2019-05-12T14:28:25.825Z,14.70
2019-05-12T14:31:06.612Z,14.70
2019-05-12T14:33:47.213Z,14.60
2019-05-12T14:36:31.836Z,14.60
2019-05-12T14:39:13.147Z,14.60
2019-05-12T14:41:54.666Z,14.60
2019-05-12T14:44:44.002Z,14.60
2019-05-12T14:47:19.110Z,14.50
2019-05-12T14:50:03.785Z,14.50
2019-05-12T14:52:44.020Z,14.40
2019-05-12T14:55:25.221Z,14.40
2019-05-12T14:58:09.359Z,14.40
2019-05-12T15:00:50.819Z,14.30
2019-05-12T15:03:31.412Z,14.20
2019-05-12T15:06:14.152Z,14.20
2019-05-12T15:08:54.951Z,14.20
2019-05-12T15:11:36.060Z,14.40
2019-05-12T15:14:17.570Z,14.50
2019-05-12T15:16:57.894Z,14.60
2019-05-12T15:19:38.974Z,14.50
2019-05-12T15:22:19.369Z,14.50
2019-05-12T15:25:02.683Z,14.40
2019-05-12T15:27:46.013Z,14.40
2019-05-12T15:30:26.722Z,14.20
2019-05-12T15:33:07.982Z,14.20
2019-05-12T15:35:48.764Z,14.10
2019-05-12T15:38:29.671Z,14.10
2019-05-12T15:41:15.707Z,14.10
2019-05-12T15:43:55.761Z,14.30
2019-05-12T15:46:41.303Z,14.30
2019-05-12T15:49:18.966Z,14.30
2019-05-12T15:51:59.761Z,14.40
2019-05-12T15:54:45.666Z,14.30
2019-05-12T15:57:24.486Z,14.20
2019-05-12T16:00:05.437Z,14.00
2019-05-12T16:02:46.048Z,13.90
2019-05-12T16:05:30.973Z,13.80
2019-05-12T16:08:09.613Z,13.70
2019-05-12T16:10:50.536Z,13.80
2019-05-12T16:13:33.640Z,13.80
2019-05-12T16:16:14.213Z,13.70
2019-05-12T16:18:54.894Z,13.60
2019-05-12T16:21:35.971Z,13.50
2019-05-12T16:24:16.651Z,13.40
2019-05-12T16:26:57.618Z,13.50
2019-05-12T16:29:38.811Z,13.60
2019-05-12T16:32:26.934Z,13.60
2019-05-12T16:35:07.231Z,13.60
2019-05-12T16:37:46.231Z,13.70
2019-05-12T16:40:26.817Z,13.80
2019-05-12T16:43:10.504Z,13.90
2019-05-12T16:45:53.627Z,14.00
2019-05-12T16:48:37.217Z,14.20
2019-05-12T16:51:18.092Z,14.10
2019-05-12T16:53:58.604Z,14.00
2019-05-12T16:56:39.241Z,14.00
2019-05-12T16:59:22.537Z,13.80
2019-05-12T17:02:09.846Z,13.80
2019-05-12T17:04:48.281Z,13.80
2019-05-12T17:07:28.661Z,13.60
2019-05-12T17:10:16.146Z,13.50
2019-05-12T17:12:54.190Z,13.40
2019-05-12T17:15:38.317Z,13.40
2019-05-12T17:18:19.204Z,13.30
2019-05-12T17:20:59.916Z,13.30
2019-05-12T17:23:40.933Z,13.20
2019-05-12T17:26:21.484Z,13.10
2019-05-12T17:29:02.200Z,13.10
2019-05-12T17:31:44.481Z,13.10
2019-05-12T17:34:25.948Z,13.00
2019-05-12T17:37:06.946Z,12.80
2019-05-12T17:39:47.796Z,12.80
2019-05-12T17:42:28.181Z,12.70
2019-05-12T17:45:09.273Z,12.60
2019-05-12T17:47:55.034Z,12.60
2019-05-12T17:50:40.382Z,12.70
2019-05-12T17:53:18.630Z,12.70
2019-05-12T17:56:04.582Z,12.70
2019-05-12T17:58:47.464Z,12.80
2019-05-12T18:01:31.320Z,12.80
2019-05-12T18:04:10.633Z,12.80
2019-05-12T18:06:53.332Z,12.70
2019-05-12T18:09:33.677Z,12.60
2019-05-12T18:12:14.781Z,12.50
2019-05-12T18:14:55.802Z,12.60
2019-05-12T18:17:38.997Z,12.60
2019-05-12T18:20:19.193Z,12.60
2019-05-12T18:22:59.997Z,12.50
2019-05-12T18:25:40.635Z,12.40
2019-05-12T18:28:26.872Z,12.30
2019-05-12T18:31:04.590Z,12.20
2019-05-12T18:33:51.968Z,12.20
2019-05-12T18:36:27.833Z,12.10
2019-05-12T18:39:11.723Z,12.10
2019-05-12T18:41:53.987Z,12.00
2019-05-12T18:44:34.553Z,11.80
2019-05-12T18:47:17.029Z,11.80
2019-05-12T18:49:58.614Z,11.70
2019-05-12T18:52:43.038Z,11.60
2019-05-12T18:55:23.581Z,11.40
2019-05-12T18:58:04.540Z,11.40
2019-05-12T19:00:45.484Z,11.30
2019-05-12T19:03:26.060Z,11.20
2019-05-12T19:06:05.502Z,11.00
2019-05-12T19:08:54.024Z,10.90
2019-05-12T19:11:46.524Z,10.70
2019-05-12T19:14:37.112Z,10.50
2019-05-12T19:17:24.150Z,10.30
2019-05-12T19:20:13.659Z,10.20
2019-05-12T19:23:03.611Z,10.00
2019-05-12T19:25:53.991Z,9.90
2019-05-12T19:28:44.434Z,9.70
2019-05-12T19:31:30.740Z,9.50
2019-05-12T19:34:22.892Z,9.30
2019-05-12T19:37:08.753Z,9.20
2019-05-12T19:39:56.805Z,9.10
2019-05-12T19:42:44.830Z,8.90
2019-05-12T19:45:33.848Z,8.80
2019-05-12T19:48:27.171Z,8.70
2019-05-12T19:51:21.968Z,8.60
2019-05-12T19:54:03.478Z,8.60
2019-05-12T19:56:53.721Z,8.50
2019-05-12T19:59:50.521Z,8.40
2019-05-12T20:02:34.061Z,8.30
2019-05-12T20:05:23.631Z,8.20
2019-05-12T20:08:04.498Z,8.10
2019-05-12T20:10:49.339Z,8.00
2019-05-12T20:13:29.669Z,7.90
2019-05-12T20:16:11.488Z,7.90
2019-05-12T20:18:57.654Z,7.80
2019-05-12T20:21:35.817Z,7.80
2019-05-12T20:24:17.645Z,7.90
2019-05-12T20:26:58.117Z,7.90
2019-05-12T20:29:38.673Z,7.90
2019-05-12T20:32:19.368Z,8.00
2019-05-12T20:35:00.161Z,8.00
2019-05-12T20:38:14.775Z,8.00
2019-05-12T20:40:55.488Z,7.90
2019-05-12T20:43:40.724Z,7.80
2019-05-12T20:46:21.814Z,7.70
2019-05-12T20:49:06.478Z,7.60
2019-05-12T20:51:44.758Z,7.50
2019-05-12T20:54:26.849Z,7.30
2019-05-12T20:57:08.237Z,7.20
2019-05-12T20:59:49.421Z,7.20
2019-05-12T21:02:30.747Z,7.10
2019-05-12T21:05:16.405Z,7.10
2019-05-12T21:07:55.707Z,7.20
2019-05-12T21:10:36.170Z,7.20
2019-05-12T21:13:20.488Z,7.00
2019-05-12T21:15:59.372Z,7.00
2019-05-12T21:18:47.957Z,7.00
2019-05-12T21:21:26.543Z,7.10
2019-05-12T21:24:05.585Z,6.90
2019-05-12T21:26:46.344Z,6.80
2019-05-12T21:29:29.847Z,6.70
2019-05-12T21:32:12.823Z,6.70
2019-05-12T21:34:57.430Z,6.60
2019-05-12T21:37:37.012Z,6.50
2019-05-12T21:40:24.203Z,6.60
2019-05-12T21:43:00.389Z,6.50
2019-05-12T21:45:41.170Z,6.40
2019-05-12T21:48:25.499Z,6.30
2019-05-12T21:51:09.518Z,6.20
2019-05-12T21:53:50.531Z,6.10
2019-05-12T21:56:30.151Z,6.10
2019-05-12T21:59:12.830Z,6.00
2019-05-12T22:01:54.208Z,5.90
2019-05-12T22:04:41.138Z,5.90
2019-05-12T22:07:17.849Z,5.80
2019-05-12T22:09:58.771Z,5.80
2019-05-12T22:12:40.157Z,5.80
2019-05-12T22:15:21.286Z,5.80
2019-05-12T22:18:04.770Z,5.70
2019-05-12T22:20:46.455Z,5.60
2019-05-12T22:23:27.025Z,5.60
2019-05-12T22:26:07.995Z,5.50
2019-05-12T22:28:50.868Z,5.50
2019-05-12T22:31:33.337Z,5.50
2019-05-12T22:34:14.314Z,5.50
2019-05-12T22:36:59.033Z,5.50
2019-05-12T22:39:37.927Z,5.40
2019-05-12T22:42:21.588Z,5.40
2019-05-12T22:45:02.958Z,5.40
2019-05-12T22:47:44.088Z,5.40
2019-05-12T22:50:27.122Z,5.40
2019-05-12T22:53:08.044Z,5.40
2019-05-12T22:55:48.323Z,5.30
2019-05-12T22:58:29.253Z,5.30
2019-05-12T23:01:09.984Z,5.30
2019-05-12T23:03:51.848Z,5.30
2019-05-12T23:06:41.874Z,5.30
2019-05-12T23:09:19.356Z,5.30
2019-05-12T23:11:58.689Z,5.20
2019-05-12T23:14:39.546Z,5.20
2019-05-12T23:17:20.150Z,5.20
2019-05-12T23:20:01.068Z,5.10
2019-05-12T23:22:43.819Z,5.10
2019-05-12T23:25:24.655Z,5.10
2019-05-12T23:28:10.208Z,5.10
2019-05-12T23:30:48.435Z,5.10
2019-05-12T23:33:36.191Z,5.10
2019-05-12T23:36:15.759Z,5.10
2019-05-12T23:39:00.495Z,5.20
2019-05-12T23:41:37.739Z,5.20
2019-05-12T23:44:18.283Z,5.20
2019-05-12T23:46:58.825Z,5.30
2019-05-12T23:49:39.247Z,5.40
2019-05-12T23:52:19.659Z,5.30
2019-05-12T23:55:00.615Z,5.30
2019-05-12T23:57:41.095Z,5.30
